sensor_id;sensor_type;location;lat;lon;timestamp;P1;durP1;ratioP1;P2;durP2;ratioP2
77775;SDS011;73554;43.328;6.668;2024-02-23T00:01:57;9.80;;;4.30;;
77775;SDS011;73554;43.328;6.668;2024-02-23T00:04:23;11.97;;;4.23;;
77775;SDS011;73554;43.328;6.668;2024-02-23T00:06:48;7.57;;;3.03;;
77775;SDS011;73554;43.328;6.668;2024-02-23T00:09:13;7.23;;;2.90;;
77775;SDS011;73554;43.328;6.668;2024-02-23T00:11:39;5.73;;;1.80;;
77775;SDS011;73554;43.328;6.668;2024-02-23T00:14:06;4.25;;;1.35;;
77775;SDS011;73554;43.328;6.668;2024-02-23T00:16:36;5.43;;;1.30;;
77775;SDS011;73554;43.328;6.668;2024-02-23T00:19:02;2.70;;;1.33;;
77775;SDS011;73554;43.328;6.668;2024-02-23T00:21:27;2.47;;;0.90;;
77775;SDS011;73554;43.328;6.668;2024-02-23T00:23:52;3.27;;;1.07;;
77775;SDS011;73554;43.328;6.668;2024-02-23T00:26:17;2.23;;;0.97;;
77775;SDS011;73554;43.328;6.668;2024-02-23T00:28:43;4.63;;;1.07;;
77775;SDS011;73554;43.328;6.668;2024-02-23T00:31:08;4.20;;;1.60;;
77775;SDS011;73554;43.328;6.668;2024-02-23T00:33:33;3.07;;;1.00;;
77775;SDS011;73554;43.328;6.668;2024-02-23T00:35:59;3.83;;;1.75;;
77775;SDS011;73554;43.328;6.668;2024-02-23T00:38:24;2.47;;;0.80;;
77775;SDS011;73554;43.328;6.668;2024-02-23T00:40:49;2.27;;;0.83;;
77775;SDS011;73554;43.328;6.668;2024-02-23T00:43:14;2.43;;;1.00;;
77775;SDS011;73554;43.328;6.668;2024-02-23T00:45:40;1.90;;;0.87;;
77775;SDS011;73554;43.328;6.668;2024-02-23T00:48:06;3.10;;;0.88;;
77775;SDS011;73554;43.328;6.668;2024-02-23T00:50:31;2.42;;;1.25;;
77775;SDS011;73554;43.328;6.668;2024-02-23T00:52:57;1.60;;;0.80;;
77775;SDS011;73554;43.328;6.668;2024-02-23T00:55:22;3.17;;;1.10;;
77775;SDS011;73554;43.328;6.668;2024-02-23T00:57:47;3.00;;;1.03;;
77775;SDS011;73554;43.328;6.668;2024-02-23T01:00:12;3.33;;;1.03;;
77775;SDS011;73554;43.328;6.668;2024-02-23T01:02:38;3.17;;;0.70;;
77775;SDS011;73554;43.328;6.668;2024-02-23T01:05:04;1.50;;;0.85;;
77775;SDS011;73554;43.328;6.668;2024-02-23T01:07:29;1.00;;;0.52;;
77775;SDS011;73554;43.328;6.668;2024-02-23T01:09:55;1.67;;;0.90;;
77775;SDS011;73554;43.328;6.668;2024-02-23T01:12:20;1.40;;;0.60;;
77775;SDS011;73554;43.328;6.668;2024-02-23T01:14:45;1.63;;;0.80;;
77775;SDS011;73554;43.328;6.668;2024-02-23T01:17:13;2.40;;;0.57;;
77775;SDS011;73554;43.328;6.668;2024-02-23T01:19:38;2.25;;;1.02;;
77775;SDS011;73554;43.328;6.668;2024-02-23T01:22:04;1.73;;;0.60;;
77775;SDS011;73554;43.328;6.668;2024-02-23T01:24:29;2.10;;;0.80;;
77775;SDS011;73554;43.328;6.668;2024-02-23T01:26:55;1.57;;;0.43;;
77775;SDS011;73554;43.328;6.668;2024-02-23T01:29:20;1.23;;;0.45;;
77775;SDS011;73554;43.328;6.668;2024-02-23T01:31:46;1.27;;;0.70;;
77775;SDS011;73554;43.328;6.668;2024-02-23T01:34:11;1.80;;;0.60;;
77775;SDS011;73554;43.328;6.668;2024-02-23T01:36:36;1.83;;;0.67;;
77775;SDS011;73554;43.328;6.668;2024-02-23T01:39:02;4.05;;;0.65;;
77775;SDS011;73554;43.328;6.668;2024-02-23T01:41:27;1.83;;;0.57;;
77775;SDS011;73554;43.328;6.668;2024-02-23T01:43:52;0.47;;;0.33;;
77775;SDS011;73554;43.328;6.668;2024-02-23T01:46:18;0.90;;;0.37;;
77775;SDS011;73554;43.328;6.668;2024-02-23T01:48:44;2.15;;;0.80;;
77775;SDS011;73554;43.328;6.668;2024-02-23T01:51:10;1.40;;;0.60;;
77775;SDS011;73554;43.328;6.668;2024-02-23T01:53:36;1.35;;;0.60;;
77775;SDS011;73554;43.328;6.668;2024-02-23T01:56:01;1.50;;;0.57;;
77775;SDS011;73554;43.328;6.668;2024-02-23T01:58:27;0.82;;;0.50;;
77775;SDS011;73554;43.328;6.668;2024-02-23T02:00:53;2.22;;;0.73;;
77775;SDS011;73554;43.328;6.668;2024-02-23T02:03:18;1.07;;;0.60;;
77775;SDS011;73554;43.328;6.668;2024-02-23T02:05:43;1.70;;;0.80;;
77775;SDS011;73554;43.328;6.668;2024-02-23T02:08:09;1.15;;;0.40;;
77775;SDS011;73554;43.328;6.668;2024-02-23T02:10:35;0.75;;;0.50;;
77775;SDS011;73554;43.328;6.668;2024-02-23T02:13:03;1.03;;;0.50;;
77775;SDS011;73554;43.328;6.668;2024-02-23T02:15:29;0.52;;;0.43;;
77775;SDS011;73554;43.328;6.668;2024-02-23T02:17:54;1.27;;;0.60;;
77775;SDS011;73554;43.328;6.668;2024-02-23T02:20:21;1.25;;;0.73;;
77775;SDS011;73554;43.328;6.668;2024-02-23T02:22:48;0.47;;;0.47;;
77775;SDS011;73554;43.328;6.668;2024-02-23T02:25:14;2.73;;;0.40;;
77775;SDS011;73554;43.328;6.668;2024-02-23T02:27:40;0.30;;;0.30;;
77775;SDS011;73554;43.328;6.668;2024-02-23T02:30:06;1.30;;;0.40;;
77775;SDS011;73554;43.328;6.668;2024-02-23T02:32:31;0.60;;;0.50;;
77775;SDS011;73554;43.328;6.668;2024-02-23T02:34:56;0.43;;;0.30;;
77775;SDS011;73554;43.328;6.668;2024-02-23T02:37:22;0.73;;;0.33;;
77775;SDS011;73554;43.328;6.668;2024-02-23T02:39:47;0.40;;;0.20;;
77775;SDS011;73554;43.328;6.668;2024-02-23T02:42:12;1.47;;;0.53;;
77775;SDS011;73554;43.328;6.668;2024-02-23T02:44:37;1.33;;;0.60;;
77775;SDS011;73554;43.328;6.668;2024-02-23T02:47:03;2.37;;;0.40;;
77775;SDS011;73554;43.328;6.668;2024-02-23T02:49:28;1.40;;;0.30;;
77775;SDS011;73554;43.328;6.668;2024-02-23T02:51:53;0.30;;;0.30;;
77775;SDS011;73554;43.328;6.668;2024-02-23T02:54:19;0.67;;;0.40;;
77775;SDS011;73554;43.328;6.668;2024-02-23T02:56:44;0.63;;;0.30;;
77775;SDS011;73554;43.328;6.668;2024-02-23T02:59:11;0.25;;;0.25;;
77775;SDS011;73554;43.328;6.668;2024-02-23T03:01:36;0.88;;;0.60;;
77775;SDS011;73554;43.328;6.668;2024-02-23T03:04:02;0.37;;;0.37;;
77775;SDS011;73554;43.328;6.668;2024-02-23T03:06:27;0.50;;;0.30;;
77775;SDS011;73554;43.328;6.668;2024-02-23T03:08:52;0.40;;;0.40;;
77775;SDS011;73554;43.328;6.668;2024-02-23T03:11:17;0.93;;;0.30;;
77775;SDS011;73554;43.328;6.668;2024-02-23T03:13:43;0.20;;;0.17;;
77775;SDS011;73554;43.328;6.668;2024-02-23T03:16:14;0.73;;;0.37;;
77775;SDS011;73554;43.328;6.668;2024-02-23T03:18:39;0.38;;;0.30;;
77775;SDS011;73554;43.328;6.668;2024-02-23T03:21:05;0.33;;;0.30;;
77775;SDS011;73554;43.328;6.668;2024-02-23T03:23:30;1.85;;;0.52;;
77775;SDS011;73554;43.328;6.668;2024-02-23T03:25:55;0.40;;;0.40;;
77775;SDS011;73554;43.328;6.668;2024-02-23T03:28:20;0.73;;;0.40;;
77775;SDS011;73554;43.328;6.668;2024-02-23T03:30:46;0.50;;;0.30;;
77775;SDS011;73554;43.328;6.668;2024-02-23T03:33:11;0.37;;;0.37;;
77775;SDS011;73554;43.328;6.668;2024-02-23T03:35:36;0.50;;;0.20;;
77775;SDS011;73554;43.328;6.668;2024-02-23T03:38:02;0.30;;;0.30;;
77775;SDS011;73554;43.328;6.668;2024-02-23T03:40:27;0.50;;;0.33;;
77775;SDS011;73554;43.328;6.668;2024-02-23T03:42:52;0.73;;;0.50;;
77775;SDS011;73554;43.328;6.668;2024-02-23T03:45:17;0.37;;;0.37;;
77775;SDS011;73554;43.328;6.668;2024-02-23T03:47:43;0.63;;;0.43;;
77775;SDS011;73554;43.328;6.668;2024-02-23T03:50:08;0.47;;;0.43;;
77775;SDS011;73554;43.328;6.668;2024-02-23T03:52:34;0.30;;;0.20;;
77775;SDS011;73554;43.328;6.668;2024-02-23T03:54:59;0.40;;;0.40;;
77775;SDS011;73554;43.328;6.668;2024-02-23T03:57:25;0.30;;;0.30;;
77775;SDS011;73554;43.328;6.668;2024-02-23T03:59:53;0.57;;;0.40;;
77775;SDS011;73554;43.328;6.668;2024-02-23T04:02:19;0.80;;;0.40;;
77775;SDS011;73554;43.328;6.668;2024-02-23T04:04:44;0.20;;;0.20;;
77775;SDS011;73554;43.328;6.668;2024-02-23T04:07:09;1.70;;;0.50;;
77775;SDS011;73554;43.328;6.668;2024-02-23T04:09:34;2.97;;;1.00;;
77775;SDS011;73554;43.328;6.668;2024-02-23T04:12:00;0.77;;;0.40;;
77775;SDS011;73554;43.328;6.668;2024-02-23T04:14:25;0.30;;;0.30;;
77775;SDS011;73554;43.328;6.668;2024-02-23T04:16:51;1.30;;;0.50;;
77775;SDS011;73554;43.328;6.668;2024-02-23T04:19:16;1.07;;;0.30;;
77775;SDS011;73554;43.328;6.668;2024-02-23T04:21:41;0.63;;;0.50;;
77775;SDS011;73554;43.328;6.668;2024-02-23T04:24:06;0.87;;;0.50;;
77775;SDS011;73554;43.328;6.668;2024-02-23T04:26:33;2.38;;;1.08;;
77775;SDS011;73554;43.328;6.668;2024-02-23T04:28:58;0.87;;;0.50;;
77775;SDS011;73554;43.328;6.668;2024-02-23T04:31:24;6.07;;;0.63;;
77775;SDS011;73554;43.328;6.668;2024-02-23T04:33:49;0.40;;;0.33;;
77775;SDS011;73554;43.328;6.668;2024-02-23T04:36:14;1.33;;;0.50;;
77775;SDS011;73554;43.328;6.668;2024-02-23T04:38:43;0.98;;;0.45;;
77775;SDS011;73554;43.328;6.668;2024-02-23T04:41:09;0.70;;;0.50;;
77775;SDS011;73554;43.328;6.668;2024-02-23T04:43:34;0.40;;;0.40;;
77775;SDS011;73554;43.328;6.668;2024-02-23T04:45:59;0.83;;;0.40;;
77775;SDS011;73554;43.328;6.668;2024-02-23T04:48:25;1.53;;;0.50;;
77775;SDS011;73554;43.328;6.668;2024-02-23T04:50:50;0.52;;;0.35;;
77775;SDS011;73554;43.328;6.668;2024-02-23T04:53:16;0.30;;;0.30;;
77775;SDS011;73554;43.328;6.668;2024-02-23T04:55:41;1.15;;;0.80;;
77775;SDS011;73554;43.328;6.668;2024-02-23T04:58:06;2.20;;;0.60;;
77775;SDS011;73554;43.328;6.668;2024-02-23T05:00:32;1.30;;;0.40;;
77775;SDS011;73554;43.328;6.668;2024-02-23T05:03:00;0.43;;;0.40;;
77775;SDS011;73554;43.328;6.668;2024-02-23T05:05:28;1.23;;;0.40;;
77775;SDS011;73554;43.328;6.668;2024-02-23T05:07:53;1.48;;;0.50;;
77775;SDS011;73554;43.328;6.668;2024-02-23T05:10:18;1.07;;;0.43;;
77775;SDS011;73554;43.328;6.668;2024-02-23T05:12:44;0.60;;;0.40;;
77775;SDS011;73554;43.328;6.668;2024-02-23T05:15:09;0.80;;;0.70;;
77775;SDS011;73554;43.328;6.668;2024-02-23T05:17:34;1.08;;;0.60;;
77775;SDS011;73554;43.328;6.668;2024-02-23T05:20:00;1.13;;;0.60;;
77775;SDS011;73554;43.328;6.668;2024-02-23T05:22:25;1.33;;;0.63;;
77775;SDS011;73554;43.328;6.668;2024-02-23T05:24:50;0.83;;;0.40;;
77775;SDS011;73554;43.328;6.668;2024-02-23T05:27:16;0.80;;;0.53;;
77775;SDS011;73554;43.328;6.668;2024-02-23T05:29:41;1.90;;;0.77;;
77775;SDS011;73554;43.328;6.668;2024-02-23T05:32:06;0.77;;;0.57;;
77775;SDS011;73554;43.328;6.668;2024-02-23T05:34:32;1.90;;;0.77;;
77775;SDS011;73554;43.328;6.668;2024-02-23T05:36:57;1.93;;;0.80;;
77775;SDS011;73554;43.328;6.668;2024-02-23T05:39:22;1.47;;;0.80;;
77775;SDS011;73554;43.328;6.668;2024-02-23T05:41:47;1.50;;;0.80;;
77775;SDS011;73554;43.328;6.668;2024-02-23T05:44:13;1.27;;;0.67;;
77775;SDS011;73554;43.328;6.668;2024-02-23T05:46:38;2.20;;;0.90;;
77775;SDS011;73554;43.328;6.668;2024-02-23T05:49:03;1.33;;;0.80;;
77775;SDS011;73554;43.328;6.668;2024-02-23T05:51:29;1.85;;;0.75;;
77775;SDS011;73554;43.328;6.668;2024-02-23T05:53:54;2.15;;;0.85;;
77775;SDS011;73554;43.328;6.668;2024-02-23T05:56:20;2.00;;;0.80;;
77775;SDS011;73554;43.328;6.668;2024-02-23T05:58:45;2.60;;;0.90;;
77775;SDS011;73554;43.328;6.668;2024-02-23T06:01:10;1.60;;;0.87;;
77775;SDS011;73554;43.328;6.668;2024-02-23T06:03:36;2.30;;;0.90;;
77775;SDS011;73554;43.328;6.668;2024-02-23T06:06:01;2.30;;;0.90;;
77775;SDS011;73554;43.328;6.668;2024-02-23T06:08:26;1.73;;;0.70;;
77775;SDS011;73554;43.328;6.668;2024-02-23T06:10:52;2.20;;;0.83;;
77775;SDS011;73554;43.328;6.668;2024-02-23T06:13:17;1.87;;;0.70;;
77775;SDS011;73554;43.328;6.668;2024-02-23T06:15:42;3.23;;;0.90;;
77775;SDS011;73554;43.328;6.668;2024-02-23T06:18:08;1.38;;;0.70;;
77775;SDS011;73554;43.328;6.668;2024-02-23T06:20:33;2.10;;;1.10;;
77775;SDS011;73554;43.328;6.668;2024-02-23T06:22:58;2.30;;;1.00;;
77775;SDS011;73554;43.328;6.668;2024-02-23T06:25:24;2.17;;;0.87;;
77775;SDS011;73554;43.328;6.668;2024-02-23T06:27:49;2.13;;;0.90;;
77775;SDS011;73554;43.328;6.668;2024-02-23T06:30:14;3.63;;;1.20;;
77775;SDS011;73554;43.328;6.668;2024-02-23T06:32:40;2.08;;;0.90;;
77775;SDS011;73554;43.328;6.668;2024-02-23T06:35:05;1.80;;;0.77;;
77775;SDS011;73554;43.328;6.668;2024-02-23T06:37:31;1.17;;;0.52;;
77775;SDS011;73554;43.328;6.668;2024-02-23T06:39:57;1.40;;;0.68;;
77775;SDS011;73554;43.328;6.668;2024-02-23T06:42:22;5.63;;;1.20;;
77775;SDS011;73554;43.328;6.668;2024-02-23T06:44:48;4.07;;;0.80;;
77775;SDS011;73554;43.328;6.668;2024-02-23T06:47:13;2.83;;;0.85;;
77775;SDS011;73554;43.328;6.668;2024-02-23T06:49:42;5.65;;;1.25;;
77775;SDS011;73554;43.328;6.668;2024-02-23T06:52:10;4.53;;;0.95;;
77775;SDS011;73554;43.328;6.668;2024-02-23T06:54:36;2.30;;;1.00;;
77775;SDS011;73554;43.328;6.668;2024-02-23T06:57:01;1.73;;;0.80;;
77775;SDS011;73554;43.328;6.668;2024-02-23T06:59:27;3.63;;;1.50;;
77775;SDS011;73554;43.328;6.668;2024-02-23T07:01:53;2.60;;;0.90;;
77775;SDS011;73554;43.328;6.668;2024-02-23T07:04:19;3.28;;;0.93;;
77775;SDS011;73554;43.328;6.668;2024-02-23T07:06:44;2.97;;;0.90;;
77775;SDS011;73554;43.328;6.668;2024-02-23T07:09:10;4.50;;;1.10;;
77775;SDS011;73554;43.328;6.668;2024-02-23T07:11:36;4.38;;;1.35;;
77775;SDS011;73554;43.328;6.668;2024-02-23T07:14:02;1.85;;;0.68;;
77775;SDS011;73554;43.328;6.668;2024-02-23T07:16:27;2.10;;;0.83;;
77775;SDS011;73554;43.328;6.668;2024-02-23T07:18:52;3.13;;;0.90;;
77775;SDS011;73554;43.328;6.668;2024-02-23T07:21:18;0.95;;;0.63;;
77775;SDS011;73554;43.328;6.668;2024-02-23T07:23:43;2.08;;;0.82;;
77775;SDS011;73554;43.328;6.668;2024-02-23T07:26:09;2.83;;;0.80;;
77775;SDS011;73554;43.328;6.668;2024-02-23T07:28:34;1.27;;;0.70;;
77775;SDS011;73554;43.328;6.668;2024-02-23T07:30:59;2.93;;;0.90;;
77775;SDS011;73554;43.328;6.668;2024-02-23T07:33:24;3.30;;;0.90;;
77775;SDS011;73554;43.328;6.668;2024-02-23T07:35:50;2.10;;;0.73;;
77775;SDS011;73554;43.328;6.668;2024-02-23T07:38:15;2.67;;;0.60;;
77775;SDS011;73554;43.328;6.668;2024-02-23T07:40:42;4.72;;;1.10;;
77775;SDS011;73554;43.328;6.668;2024-02-23T07:43:08;5.93;;;1.50;;
77775;SDS011;73554;43.328;6.668;2024-02-23T07:45:35;1.85;;;0.70;;
77775;SDS011;73554;43.328;6.668;2024-02-23T07:48:01;5.33;;;1.03;;
77775;SDS011;73554;43.328;6.668;2024-02-23T07:50:26;3.27;;;0.87;;
77775;SDS011;73554;43.328;6.668;2024-02-23T07:52:51;4.20;;;1.85;;
77775;SDS011;73554;43.328;6.668;2024-02-23T07:55:17;2.37;;;1.00;;
77775;SDS011;73554;43.328;6.668;2024-02-23T07:57:42;2.30;;;0.80;;
77775;SDS011;73554;43.328;6.668;2024-02-23T08:00:07;1.83;;;0.70;;
77775;SDS011;73554;43.328;6.668;2024-02-23T08:02:34;2.50;;;1.20;;
77775;SDS011;73554;43.328;6.668;2024-02-23T08:05:00;3.70;;;0.70;;
77775;SDS011;73554;43.328;6.668;2024-02-23T08:07:25;1.70;;;0.80;;
77775;SDS011;73554;43.328;6.668;2024-02-23T08:09:53;2.40;;;0.80;;
77775;SDS011;73554;43.328;6.668;2024-02-23T08:12:18;3.27;;;0.97;;
77775;SDS011;73554;43.328;6.668;2024-02-23T08:14:43;1.83;;;0.70;;
77775;SDS011;73554;43.328;6.668;2024-02-23T08:19:35;3.20;;;0.85;;
77775;SDS011;73554;43.328;6.668;2024-02-23T08:22:00;3.83;;;0.93;;
77775;SDS011;73554;43.328;6.668;2024-02-23T08:24:26;2.77;;;0.80;;
77775;SDS011;73554;43.328;6.668;2024-02-23T08:26:51;4.65;;;1.05;;
77775;SDS011;73554;43.328;6.668;2024-02-23T08:29:16;2.77;;;1.10;;
77775;SDS011;73554;43.328;6.668;2024-02-23T08:31:42;1.52;;;0.60;;
77775;SDS011;73554;43.328;6.668;2024-02-23T08:34:07;3.53;;;0.63;;
77775;SDS011;73554;43.328;6.668;2024-02-23T08:36:32;2.43;;;0.83;;
77775;SDS011;73554;43.328;6.668;2024-02-23T08:38:58;3.67;;;1.00;;
77775;SDS011;73554;43.328;6.668;2024-02-23T08:41:25;2.37;;;0.80;;
77775;SDS011;73554;43.328;6.668;2024-02-23T08:43:50;2.40;;;0.60;;
77775;SDS011;73554;43.328;6.668;2024-02-23T08:46:16;1.23;;;0.57;;
77775;SDS011;73554;43.328;6.668;2024-02-23T08:48:41;3.07;;;1.03;;
77775;SDS011;73554;43.328;6.668;2024-02-23T08:51:06;3.27;;;0.90;;
77775;SDS011;73554;43.328;6.668;2024-02-23T08:53:31;1.87;;;0.67;;
77775;SDS011;73554;43.328;6.668;2024-02-23T08:55:57;1.67;;;0.67;;
77775;SDS011;73554;43.328;6.668;2024-02-23T08:58:22;2.85;;;0.73;;
77775;SDS011;73554;43.328;6.668;2024-02-23T09:00:47;2.83;;;0.80;;
77775;SDS011;73554;43.328;6.668;2024-02-23T09:03:13;3.00;;;0.80;;
77775;SDS011;73554;43.328;6.668;2024-02-23T09:05:39;2.30;;;0.85;;
77775;SDS011;73554;43.328;6.668;2024-02-23T09:08:05;2.42;;;0.88;;
77775;SDS011;73554;43.328;6.668;2024-02-23T09:10:30;1.50;;;0.68;;
77775;SDS011;73554;43.328;6.668;2024-02-23T09:12:55;2.87;;;1.10;;
77775;SDS011;73554;43.328;6.668;2024-02-23T09:15:20;3.33;;;1.07;;
77775;SDS011;73554;43.328;6.668;2024-02-23T09:17:46;1.43;;;0.60;;
77775;SDS011;73554;43.328;6.668;2024-02-23T09:20:11;2.65;;;0.85;;
77775;SDS011;73554;43.328;6.668;2024-02-23T09:22:37;2.53;;;0.82;;
77775;SDS011;73554;43.328;6.668;2024-02-23T09:25:02;1.70;;;1.13;;
77775;SDS011;73554;43.328;6.668;2024-02-23T09:27:27;4.90;;;1.20;;
77775;SDS011;73554;43.328;6.668;2024-02-23T09:29:53;2.42;;;0.68;;
77775;SDS011;73554;43.328;6.668;2024-02-23T09:32:18;1.70;;;0.53;;
77775;SDS011;73554;43.328;6.668;2024-02-23T09:34:43;2.30;;;0.80;;
77775;SDS011;73554;43.328;6.668;2024-02-23T09:37:09;1.93;;;0.70;;
77775;SDS011;73554;43.328;6.668;2024-02-23T09:39:35;3.00;;;0.90;;
77775;SDS011;73554;43.328;6.668;2024-02-23T09:42:00;3.47;;;0.77;;
77775;SDS011;73554;43.328;6.668;2024-02-23T09:44:26;1.67;;;0.70;;
77775;SDS011;73554;43.328;6.668;2024-02-23T09:46:57;1.65;;;0.70;;
77775;SDS011;73554;43.328;6.668;2024-02-23T09:49:23;2.85;;;0.95;;
77775;SDS011;73554;43.328;6.668;2024-02-23T09:51:48;3.10;;;0.90;;
77775;SDS011;73554;43.328;6.668;2024-02-23T09:54:13;2.55;;;0.80;;
77775;SDS011;73554;43.328;6.668;2024-02-23T09:56:39;1.03;;;0.63;;
77775;SDS011;73554;43.328;6.668;2024-02-23T09:59:04;3.23;;;0.80;;
77775;SDS011;73554;43.328;6.668;2024-02-23T10:01:30;1.83;;;0.60;;
77775;SDS011;73554;43.328;6.668;2024-02-23T10:03:59;2.00;;;0.80;;
77775;SDS011;73554;43.328;6.668;2024-02-23T10:06:24;5.30;;;1.10;;
77775;SDS011;73554;43.328;6.668;2024-02-23T10:08:50;1.45;;;0.63;;
77775;SDS011;73554;43.328;6.668;2024-02-23T10:11:18;3.63;;;0.80;;
77775;SDS011;73554;43.328;6.668;2024-02-23T10:13:44;2.65;;;0.90;;
77775;SDS011;73554;43.328;6.668;2024-02-23T10:16:09;1.47;;;0.83;;
77775;SDS011;73554;43.328;6.668;2024-02-23T10:18:37;2.92;;;0.82;;
77775;SDS011;73554;43.328;6.668;2024-02-23T10:21:02;1.90;;;0.80;;
77775;SDS011;73554;43.328;6.668;2024-02-23T10:23:28;3.42;;;1.10;;
77775;SDS011;73554;43.328;6.668;2024-02-23T10:25:54;3.05;;;0.90;;
77775;SDS011;73554;43.328;6.668;2024-02-23T10:28:19;2.03;;;0.77;;
77775;SDS011;73554;43.328;6.668;2024-02-23T10:30:47;1.88;;;0.82;;
77775;SDS011;73554;43.328;6.668;2024-02-23T10:33:13;3.73;;;1.13;;
77775;SDS011;73554;43.328;6.668;2024-02-23T10:35:39;2.35;;;0.93;;
77775;SDS011;73554;43.328;6.668;2024-02-23T10:38:05;4.88;;;1.25;;
77775;SDS011;73554;43.328;6.668;2024-02-23T10:40:38;3.72;;;1.40;;
77775;SDS011;73554;43.328;6.668;2024-02-23T10:43:05;3.47;;;1.08;;
77775;SDS011;73554;43.328;6.668;2024-02-23T10:45:34;4.38;;;1.40;;
77775;SDS011;73554;43.328;6.668;2024-02-23T10:48:01;4.72;;;0.70;;
77775;SDS011;73554;43.328;6.668;2024-02-23T10:50:27;4.07;;;1.00;;
77775;SDS011;73554;43.328;6.668;2024-02-23T10:52:52;2.50;;;0.80;;
77775;SDS011;73554;43.328;6.668;2024-02-23T10:55:19;2.58;;;0.80;;
77775;SDS011;73554;43.328;6.668;2024-02-23T10:57:45;4.25;;;1.10;;
77775;SDS011;73554;43.328;6.668;2024-02-23T11:00:13;2.65;;;0.95;;
77775;SDS011;73554;43.328;6.668;2024-02-23T11:02:43;2.03;;;0.70;;
77775;SDS011;73554;43.328;6.668;2024-02-23T11:05:08;4.90;;;1.00;;
77775;SDS011;73554;43.328;6.668;2024-02-23T11:07:40;2.72;;;0.68;;
77775;SDS011;73554;43.328;6.668;2024-02-23T11:10:06;2.25;;;0.90;;
77775;SDS011;73554;43.328;6.668;2024-02-23T11:12:31;2.63;;;1.13;;
77775;SDS011;73554;43.328;6.668;2024-02-23T11:15:00;2.27;;;0.80;;
77775;SDS011;73554;43.328;6.668;2024-02-23T11:17:32;2.30;;;0.82;;
77775;SDS011;73554;43.328;6.668;2024-02-23T11:20:03;1.58;;;0.70;;
77775;SDS011;73554;43.328;6.668;2024-02-23T11:22:33;3.08;;;0.90;;
77775;SDS011;73554;43.328;6.668;2024-02-23T11:25:00;2.60;;;0.80;;
77775;SDS011;73554;43.328;6.668;2024-02-23T11:27:29;2.63;;;0.90;;
77775;SDS011;73554;43.328;6.668;2024-02-23T11:35:01;2.42;;;1.20;;
77775;SDS011;73554;43.328;6.668;2024-02-23T11:37:30;2.63;;;0.80;;
77775;SDS011;73554;43.328;6.668;2024-02-23T11:39:56;3.90;;;0.80;;
77775;SDS011;73554;43.328;6.668;2024-02-23T11:42:23;1.55;;;0.73;;
77775;SDS011;73554;43.328;6.668;2024-02-23T11:44:49;1.70;;;0.60;;
77775;SDS011;73554;43.328;6.668;2024-02-23T11:47:14;2.25;;;0.80;;
77775;SDS011;73554;43.328;6.668;2024-02-23T11:49:41;2.15;;;0.73;;
77775;SDS011;73554;43.328;6.668;2024-02-23T11:52:07;3.43;;;0.80;;
77775;SDS011;73554;43.328;6.668;2024-02-23T11:54:32;2.15;;;0.75;;
77775;SDS011;73554;43.328;6.668;2024-02-23T11:56:57;2.67;;;0.77;;
77775;SDS011;73554;43.328;6.668;2024-02-23T11:59:23;3.43;;;0.70;;
77775;SDS011;73554;43.328;6.668;2024-02-23T12:01:49;3.63;;;0.95;;
77775;SDS011;73554;43.328;6.668;2024-02-23T12:04:15;2.23;;;0.60;;
77775;SDS011;73554;43.328;6.668;2024-02-23T12:06:41;1.48;;;0.68;;
77775;SDS011;73554;43.328;6.668;2024-02-23T12:09:07;2.25;;;0.80;;
77775;SDS011;73554;43.328;6.668;2024-02-23T12:11:32;2.28;;;0.80;;
77775;SDS011;73554;43.328;6.668;2024-02-23T12:13:57;3.17;;;0.80;;
77775;SDS011;73554;43.328;6.668;2024-02-23T12:16:23;1.08;;;0.50;;
77775;SDS011;73554;43.328;6.668;2024-02-23T12:18:55;4.90;;;1.07;;
77775;SDS011;73554;43.328;6.668;2024-02-23T12:23:45;2.83;;;1.57;;
77775;SDS011;73554;43.328;6.668;2024-02-23T12:26:13;2.58;;;0.60;;
77775;SDS011;73554;43.328;6.668;2024-02-23T12:28:39;2.40;;;0.77;;
77775;SDS011;73554;43.328;6.668;2024-02-23T12:31:04;3.15;;;0.80;;
77775;SDS011;73554;43.328;6.668;2024-02-23T12:33:36;1.65;;;0.70;;
77775;SDS011;73554;43.328;6.668;2024-02-23T12:38:27;3.57;;;0.83;;
77775;SDS011;73554;43.328;6.668;2024-02-23T12:40:53;1.87;;;0.63;;
77775;SDS011;73554;43.328;6.668;2024-02-23T12:43:18;1.92;;;0.75;;
77775;SDS011;73554;43.328;6.668;2024-02-23T12:45:46;2.97;;;0.73;;
77775;SDS011;73554;43.328;6.668;2024-02-23T12:48:14;3.33;;;0.68;;
77775;SDS011;73554;43.328;6.668;2024-02-23T12:50:39;2.40;;;0.75;;
77775;SDS011;73554;43.328;6.668;2024-02-23T12:53:08;4.88;;;0.95;;
77775;SDS011;73554;43.328;6.668;2024-02-23T12:55:33;1.65;;;0.80;;
77775;SDS011;73554;43.328;6.668;2024-02-23T12:57:59;2.70;;;0.70;;
77775;SDS011;73554;43.328;6.668;2024-02-23T13:00:24;2.77;;;0.80;;
77775;SDS011;73554;43.328;6.668;2024-02-23T13:02:49;1.27;;;0.53;;
77775;SDS011;73554;43.328;6.668;2024-02-23T13:05:15;3.22;;;0.80;;
77775;SDS011;73554;43.328;6.668;2024-02-23T13:07:41;1.85;;;0.45;;
77775;SDS011;73554;43.328;6.668;2024-02-23T13:10:07;2.47;;;0.63;;
77775;SDS011;73554;43.328;6.668;2024-02-23T13:12:33;1.95;;;0.65;;
77775;SDS011;73554;43.328;6.668;2024-02-23T13:14:58;2.57;;;1.00;;
77775;SDS011;73554;43.328;6.668;2024-02-23T13:17:23;2.87;;;0.80;;
77775;SDS011;73554;43.328;6.668;2024-02-23T13:19:49;3.50;;;0.87;;
77775;SDS011;73554;43.328;6.668;2024-02-23T13:22:14;2.33;;;0.60;;
77775;SDS011;73554;43.328;6.668;2024-02-23T13:24:39;2.88;;;0.80;;
77775;SDS011;73554;43.328;6.668;2024-02-23T13:27:05;1.38;;;0.52;;
77775;SDS011;73554;43.328;6.668;2024-02-23T13:29:33;3.15;;;1.10;;
77775;SDS011;73554;43.328;6.668;2024-02-23T13:31:58;2.80;;;0.83;;
77775;SDS011;73554;43.328;6.668;2024-02-23T13:34:23;3.97;;;1.02;;
77775;SDS011;73554;43.328;6.668;2024-02-23T13:36:49;1.40;;;0.90;;
77775;SDS011;73554;43.328;6.668;2024-02-23T13:39:15;2.20;;;0.60;;
77775;SDS011;73554;43.328;6.668;2024-02-23T13:41:40;2.25;;;0.70;;
77775;SDS011;73554;43.328;6.668;2024-02-23T13:44:05;3.93;;;0.77;;
77775;SDS011;73554;43.328;6.668;2024-02-23T13:46:31;4.38;;;1.20;;
77775;SDS011;73554;43.328;6.668;2024-02-23T13:49:03;3.33;;;1.33;;
77775;SDS011;73554;43.328;6.668;2024-02-23T13:51:29;3.55;;;1.20;;
77775;SDS011;73554;43.328;6.668;2024-02-23T13:53:54;4.83;;;1.00;;
77775;SDS011;73554;43.328;6.668;2024-02-23T13:56:19;3.60;;;0.93;;
77775;SDS011;73554;43.328;6.668;2024-02-23T13:58:44;3.27;;;1.13;;
77775;SDS011;73554;43.328;6.668;2024-02-23T14:01:11;4.55;;;0.98;;
77775;SDS011;73554;43.328;6.668;2024-02-23T14:03:36;4.60;;;0.80;;
77775;SDS011;73554;43.328;6.668;2024-02-23T14:06:02;2.13;;;0.80;;
77775;SDS011;73554;43.328;6.668;2024-02-23T14:08:27;5.13;;;0.80;;
77775;SDS011;73554;43.328;6.668;2024-02-23T14:10:52;3.67;;;1.10;;
77775;SDS011;73554;43.328;6.668;2024-02-23T14:13:18;2.67;;;0.82;;
77775;SDS011;73554;43.328;6.668;2024-02-23T14:15:44;3.38;;;0.80;;
77775;SDS011;73554;43.328;6.668;2024-02-23T14:18:10;3.65;;;1.00;;
77775;SDS011;73554;43.328;6.668;2024-02-23T14:20:35;3.27;;;0.97;;
77775;SDS011;73554;43.328;6.668;2024-02-23T14:23:00;4.20;;;1.03;;
77775;SDS011;73554;43.328;6.668;2024-02-23T14:25:26;2.47;;;0.87;;
77775;SDS011;73554;43.328;6.668;2024-02-23T14:27:51;3.37;;;1.00;;
77775;SDS011;73554;43.328;6.668;2024-02-23T14:30:16;3.53;;;0.90;;
77775;SDS011;73554;43.328;6.668;2024-02-23T14:32:41;2.90;;;0.97;;
77775;SDS011;73554;43.328;6.668;2024-02-23T14:35:07;3.83;;;1.00;;
77775;SDS011;73554;43.328;6.668;2024-02-23T14:37:32;2.70;;;1.08;;
77775;SDS011;73554;43.328;6.668;2024-02-23T14:39:58;2.90;;;1.00;;
77775;SDS011;73554;43.328;6.668;2024-02-23T14:42:23;2.47;;;0.90;;
77775;SDS011;73554;43.328;6.668;2024-02-23T14:44:48;3.65;;;1.00;;
77775;SDS011;73554;43.328;6.668;2024-02-23T14:47:15;3.10;;;0.90;;
77775;SDS011;73554;43.328;6.668;2024-02-23T14:49:40;3.17;;;1.27;;
77775;SDS011;73554;43.328;6.668;2024-02-23T14:52:06;5.80;;;1.10;;